Terminal Aerodrome Forecast
Issued by NWS

Home | Current Version | Previous Version | Text Only | Print | Product List | Glossary Off
Versions: 1 2 3 4 5 6 7 8 9 10 11 12 13 14

475
FTUS43 KICT 111735
TAFSLN
TAF
KSLN 111735Z 1118/1218 32025G35KT P6SM BKN250
     FM120100 34018G25KT P6SM BKN250
     FM120600 34012KT P6SM SKC
     FM120900 32006KT P6SM SKC=

USA.gov is the U.S. government's official web portal to all federal, state and local government web resources and services.